createdAt,value
2022-11-03T00:01:07.973Z,100599.05
2022-11-03T00:03:35.878Z,100596.16
2022-11-03T00:06:07.286Z,100596.33
2022-11-03T00:08:36.874Z,100599.36
2022-11-03T00:11:12.941Z,100597.30
2022-11-03T00:13:42.522Z,100604.27
2022-11-03T00:16:13.357Z,100602.52
2022-11-03T00:18:40.924Z,100605.81
2022-11-03T00:21:11.233Z,100606.66
2022-11-03T00:23:41.151Z,100610.10
2022-11-03T00:26:10.503Z,100614.67
2022-11-03T00:28:39.103Z,100614.13
2022-11-03T00:31:12.964Z,100610.59
2022-11-03T00:33:41.559Z,100613.41
2022-11-03T00:36:13.116Z,100616.48
2022-11-03T00:38:40.725Z,100616.05
2022-11-03T00:41:10.689Z,100612.61
2022-11-03T00:43:38.414Z,100612.30
2022-11-03T00:46:07.561Z,100613.84
2022-11-03T00:48:36.935Z,100619.15
2022-11-03T00:51:16.171Z,100623.40
2022-11-03T00:53:50.181Z,100621.13
2022-11-03T00:56:20.656Z,100626.27
2022-11-03T00:58:49.821Z,100627.00
2022-11-03T01:01:31.765Z,100625.40
2022-11-03T01:04:14.660Z,100626.14
2022-11-03T01:06:51.090Z,100630.55
2022-11-03T01:09:34.720Z,100632.77
2022-11-03T01:12:13.181Z,100636.98
2022-11-03T01:14:42.388Z,100637.91
2022-11-03T01:17:27.206Z,100639.11
2022-11-03T01:19:55.186Z,100636.89
2022-11-03T01:22:23.976Z,100635.83
2022-11-03T01:24:54.111Z,100641.84
2022-11-03T01:27:25.582Z,100637.93
2022-11-03T01:29:53.124Z,100636.71
2022-11-03T01:32:20.669Z,100635.31
2022-11-03T01:34:48.212Z,100636.98
2022-11-03T01:37:15.755Z,100638.62
2022-11-03T01:39:43.268Z,100636.10
2022-11-03T01:42:14.429Z,100635.69
2022-11-03T01:44:47.588Z,100628.99
2022-11-03T01:47:19.289Z,100630.70
2022-11-03T01:49:57.264Z,100635.39
2022-11-03T01:52:37.434Z,100640.69
2022-11-03T01:55:11.140Z,100640.99
2022-11-03T01:57:50.545Z,100644.91
2022-11-03T02:00:18.235Z,100647.96
2022-11-03T02:02:46.277Z,100644.98
2022-11-03T02:05:16.535Z,100647.21
2022-11-03T02:07:51.135Z,100649.88
2022-11-03T02:10:19.071Z,100650.54
2022-11-03T02:12:48.109Z,100644.41
2022-11-03T02:15:18.976Z,100640.37
2022-11-03T02:17:48.954Z,100641.35
2022-11-03T02:20:30.043Z,100642.13
2022-11-03T02:23:13.819Z,100642.85
2022-11-03T02:25:48.873Z,100638.89
2022-11-03T02:28:21.294Z,100640.52
2022-11-03T02:31:10.972Z,100636.62
2022-11-03T02:33:59.925Z,100639.65
2022-11-03T02:36:43.044Z,100640.80
2022-11-03T02:39:19.308Z,100639.09
2022-11-03T02:41:49.028Z,100634.91
2022-11-03T02:44:19.655Z,100635.56
2022-11-03T02:46:54.580Z,100638.95
2022-11-03T02:49:22.133Z,100642.83
2022-11-03T02:51:59.673Z,100644.25
2022-11-03T02:54:35.745Z,100644.92
2022-11-03T02:57:07.966Z,100649.67
2022-11-03T03:00:00.026Z,100650.85
2022-11-03T03:02:36.006Z,100650.44
2022-11-03T03:05:08.793Z,100648.73
2022-11-03T03:07:40.728Z,100654.05
2022-11-03T03:10:14.520Z,100654.77
2022-11-03T03:12:54.815Z,100650.03
2022-11-03T03:15:34.228Z,100655.95
2022-11-03T03:18:15.975Z,100657.90
2022-11-03T03:21:04.868Z,100655.38
2022-11-03T03:23:36.739Z,100655.54
2022-11-03T03:26:15.702Z,100657.00
2022-11-03T03:29:02.266Z,100655.69
2022-11-03T03:31:35.159Z,100657.76
2022-11-03T03:34:16.292Z,100654.87
2022-11-03T03:36:54.026Z,100659.45
2022-11-03T03:39:25.285Z,100658.45
2022-11-03T03:41:55.499Z,100659.85
2022-11-03T03:44:24.446Z,100653.95
2022-11-03T03:46:59.599Z,100655.55
2022-11-03T03:49:27.317Z,100660.55
2022-11-03T03:51:55.072Z,100662.96
2022-11-03T03:54:22.637Z,100660.11
2022-11-03T03:57:02.101Z,100658.55
2022-11-03T03:59:30.258Z,100660.27
2022-11-03T04:01:59.114Z,100666.33
2022-11-03T04:04:26.809Z,100664.84
2022-11-03T04:07:14.317Z,100665.15
2022-11-03T04:09:41.921Z,100672.84
2022-11-03T04:12:24.436Z,100671.16
2022-11-03T04:15:07.964Z,100672.36
2022-11-03T04:17:52.173Z,100672.09
2022-11-03T04:20:34.637Z,100670.56
2022-11-03T04:23:02.148Z,100671.80
2022-11-03T04:25:29.671Z,100672.05
2022-11-03T04:27:57.255Z,100672.96
2022-11-03T04:30:26.303Z,100678.73
2022-11-03T04:32:54.508Z,100673.98
2022-11-03T04:35:24.571Z,100674.48
2022-11-03T04:37:57.277Z,100677.10
2022-11-03T04:40:25.045Z,100678.02
2022-11-03T04:42:52.702Z,100676.60
2022-11-03T04:45:28.837Z,100679.31
2022-11-03T04:47:59.062Z,100675.90
2022-11-03T04:50:26.592Z,100676.42
2022-11-03T04:53:00.183Z,100677.48
2022-11-03T04:55:27.772Z,100677.76
2022-11-03T04:58:02.635Z,100676.85
2022-11-03T05:00:30.138Z,100684.61
2022-11-03T05:02:57.975Z,100687.74
2022-11-03T05:05:26.774Z,100688.79
2022-11-03T05:07:56.705Z,100692.83
2022-11-03T05:10:27.072Z,100699.30
2022-11-03T05:12:56.013Z,100698.16
2022-11-03T05:15:31.510Z,100699.55
2022-11-03T05:18:01.306Z,100697.33
2022-11-03T05:20:39.333Z,100698.23
2022-11-03T05:23:12.250Z,100698.32
2022-11-03T05:25:47.634Z,100697.77
2022-11-03T05:28:21.404Z,100693.24
2022-11-03T05:30:50.183Z,100691.15
2022-11-03T05:33:30.653Z,100690.82
2022-11-03T05:36:03.057Z,100691.65
2022-11-03T05:38:32.430Z,100695.82
2022-11-03T05:41:01.095Z,100698.65
2022-11-03T05:43:29.808Z,100701.61
2022-11-03T05:46:02.131Z,100696.73
2022-11-03T05:48:40.922Z,100702.81
2022-11-03T05:51:31.782Z,100705.42
2022-11-03T05:54:02.753Z,100701.41
2022-11-03T05:56:32.972Z,100703.81
2022-11-03T05:59:02.847Z,100707.52
2022-11-03T06:01:33.812Z,100707.67
2022-11-03T06:04:22.504Z,100711.08
2022-11-03T06:06:55.853Z,100712.84
2022-11-03T06:09:26.760Z,100714.53
2022-11-03T06:11:57.138Z,100716.08
2022-11-03T06:14:27.061Z,100713.78
2022-11-03T06:16:57.837Z,100713.48
2022-11-03T06:19:31.228Z,100719.44
2022-11-03T06:22:24.491Z,100719.67
2022-11-03T06:25:31.333Z,100714.52
2022-11-03T06:28:17.811Z,100710.90
2022-11-03T06:30:46.425Z,100711.58
2022-11-03T06:33:24.790Z,100711.15
2022-11-03T06:35:59.472Z,100711.91
2022-11-03T06:38:30.062Z,100713.13
2022-11-03T06:40:58.706Z,100713.69
2022-11-03T06:43:32.218Z,100712.38
2022-11-03T06:46:18.887Z,100718.28
2022-11-03T06:48:47.590Z,100722.86
2022-11-03T06:51:30.008Z,100725.79
2022-11-03T06:53:59.991Z,100727.86
2022-11-03T06:56:35.178Z,100728.58
2022-11-03T06:59:03.275Z,100731.31
2022-11-03T07:01:35.207Z,100734.04
2022-11-03T07:04:14.728Z,100740.70
2022-11-03T07:06:43.287Z,100740.66
2022-11-03T07:09:21.234Z,100741.88
2022-11-03T07:11:50.934Z,100740.77
2022-11-03T07:14:25.012Z,100743.05
2022-11-03T07:16:56.029Z,100741.86
2022-11-03T07:19:26.632Z,100737.54
2022-11-03T07:22:04.491Z,100743.63
2022-11-03T07:24:36.312Z,100742.56
2022-11-03T07:27:19.832Z,100740.53
2022-11-03T07:29:49.532Z,100736.49
2022-11-03T07:32:22.539Z,100740.79
2022-11-03T07:34:54.363Z,100744.54
2022-11-03T07:37:25.867Z,100742.17
2022-11-03T07:39:53.870Z,100742.13
2022-11-03T07:42:24.313Z,100729.80
2022-11-03T07:44:55.698Z,100729.50
2022-11-03T07:47:25.699Z,100728.56
2022-11-03T07:49:56.027Z,100731.10
2022-11-03T07:52:25.960Z,100729.72
2022-11-03T07:54:57.187Z,100722.63
2022-11-03T07:57:30.329Z,100720.70
2022-11-03T08:00:10.694Z,100719.89
2022-11-03T08:02:48.401Z,100715.05
2022-11-03T08:05:16.284Z,100712.49
2022-11-03T08:07:43.990Z,100708.75
2022-11-03T08:10:11.574Z,100709.40
2022-11-03T08:12:39.391Z,100702.61
2022-11-03T08:15:07.830Z,100707.08
2022-11-03T08:17:35.399Z,100707.08
2022-11-03T08:20:03.081Z,100706.73
2022-11-03T08:22:30.705Z,100707.52
2022-11-03T08:24:58.283Z,100708.98
2022-11-03T08:27:27.530Z,100707.12
2022-11-03T08:29:55.102Z,100704.58
2022-11-03T08:32:22.641Z,100701.15
2022-11-03T08:34:50.173Z,100707.15
2022-11-03T08:37:17.704Z,100703.95
2022-11-03T08:39:45.243Z,100702.81
2022-11-03T08:42:12.799Z,100703.56
2022-11-03T08:44:40.379Z,100699.40
2022-11-03T08:47:07.897Z,100698.14
2022-11-03T08:49:35.454Z,100698.14
2022-11-03T08:52:03.033Z,100694.33
2022-11-03T08:54:30.579Z,100694.97
2022-11-03T08:56:58.434Z,100690.16
2022-11-03T08:59:26.251Z,100688.72
2022-11-03T09:01:53.923Z,100688.27
2022-11-03T09:04:21.501Z,100687.42
2022-11-03T09:06:49.019Z,100691.86
2022-11-03T09:12:04.571Z,100690.52
2022-11-03T09:14:32.158Z,100692.91
2022-11-03T09:16:59.800Z,100685.65
2022-11-03T09:19:28.435Z,100683.42
2022-11-03T09:21:57.027Z,100683.98
2022-11-03T09:24:24.654Z,100689.13
2022-11-03T09:26:52.183Z,100690.34
2022-11-03T09:29:19.806Z,100693.89
2022-11-03T09:31:47.714Z,100692.36
2022-11-03T09:34:15.295Z,100692.05
2022-11-03T09:36:42.955Z,100694.02
2022-11-03T09:39:10.531Z,100694.23
2022-11-03T09:41:57.812Z,100698.92
2022-11-03T09:44:26.071Z,100699.66
2022-11-03T09:46:58.052Z,100695.18
2022-11-03T09:49:27.767Z,100692.69
2022-11-03T09:51:55.732Z,100691.04
2022-11-03T09:54:24.084Z,100688.83
2022-11-03T09:56:51.683Z,100684.38
2022-11-03T09:59:21.969Z,100685.85
2022-11-03T10:01:53.340Z,100684.88
2022-11-03T10:04:27.846Z,100682.34
2022-11-03T10:06:57.002Z,100679.44
2022-11-03T10:09:26.156Z,100680.17
2022-11-03T10:11:55.070Z,100675.48
2022-11-03T10:14:23.143Z,100676.76
2022-11-03T10:17:00.034Z,100675.23
2022-11-03T10:19:28.072Z,100679.27
2022-11-03T10:21:55.791Z,100669.33
2022-11-03T10:24:25.258Z,100670.48
2022-11-03T10:26:56.859Z,100671.87
2022-11-03T10:29:27.522Z,100672.06
2022-11-03T10:31:59.446Z,100670.06
2022-11-03T10:34:34.942Z,100671.02
2022-11-03T10:37:23.209Z,100668.73
2022-11-03T10:39:55.510Z,100666.91
2022-11-03T10:42:35.409Z,100659.19
2022-11-03T10:45:15.297Z,100664.50
2022-11-03T10:47:43.293Z,100662.90
2022-11-03T10:50:27.566Z,100664.52
2022-11-03T10:52:56.301Z,100658.05
2022-11-03T10:55:26.248Z,100656.66
2022-11-03T10:57:57.958Z,100653.80
2022-11-03T11:00:25.666Z,100649.70
2022-11-03T11:02:59.235Z,100648.67
2022-11-03T11:05:26.871Z,100645.02
2022-11-03T11:07:55.345Z,100638.72
2022-11-03T11:10:25.318Z,100638.77
2022-11-03T11:13:25.561Z,100632.85
2022-11-03T11:15:55.685Z,100630.41
2022-11-03T11:18:29.587Z,100624.45
2022-11-03T11:21:01.786Z,100627.27
2022-11-03T11:23:29.312Z,100621.06
2022-11-03T11:26:14.478Z,100620.59
2022-11-03T11:28:43.012Z,100618.27
2022-11-03T11:31:26.512Z,100614.54
2022-11-03T11:34:10.352Z,100612.84
2022-11-03T11:36:42.688Z,100611.58
2022-11-03T11:39:32.028Z,100609.00
2022-11-03T11:42:20.928Z,100606.31
2022-11-03T11:44:56.708Z,100600.52
2022-11-03T11:47:33.788Z,100595.52
2022-11-03T11:50:07.134Z,100590.27
2022-11-03T11:52:38.410Z,100587.53
2022-11-03T11:55:06.783Z,100582.00
2022-11-03T11:57:35.084Z,100577.62
2022-11-03T12:00:03.011Z,100573.16
2022-11-03T12:02:39.825Z,100569.73
2022-11-03T12:05:19.586Z,100571.20
2022-11-03T12:07:50.997Z,100564.98
2022-11-03T12:10:27.023Z,100565.23
2022-11-03T12:13:02.715Z,100557.00
2022-11-03T12:15:56.189Z,100551.45
2022-11-03T12:18:49.353Z,100552.23
2022-11-03T12:21:46.326Z,100550.94
2022-11-03T12:24:36.151Z,100551.90
2022-11-03T12:27:18.587Z,100545.98
2022-11-03T12:29:46.410Z,100541.14
2022-11-03T12:32:32.566Z,100543.52
2022-11-03T12:35:02.995Z,100541.97
2022-11-03T12:37:30.628Z,100540.67
2022-11-03T12:39:58.168Z,100545.67
2022-11-03T12:42:25.979Z,100545.80
2022-11-03T12:44:53.783Z,100544.02
2022-11-03T12:47:21.365Z,100546.83
2022-11-03T12:49:49.375Z,100540.61
2022-11-03T12:52:16.985Z,100543.60
2022-11-03T12:54:44.565Z,100542.09
2022-11-03T12:57:12.197Z,100538.10
2022-11-03T12:59:40.560Z,100533.38
2022-11-03T13:02:10.550Z,100530.91
2022-11-03T13:04:39.091Z,100526.74
2022-11-03T13:07:06.657Z,100523.45
2022-11-03T13:09:35.754Z,100518.69
2022-11-03T13:12:18.441Z,100510.51
2022-11-03T13:14:47.841Z,100510.04
2022-11-03T13:17:16.269Z,100507.30
2022-11-03T13:19:43.798Z,100511.29
2022-11-03T13:22:11.384Z,100512.81
2022-11-03T13:24:38.922Z,100510.26
2022-11-03T13:27:06.485Z,100504.83
2022-11-03T13:29:35.897Z,100499.21
2022-11-03T13:32:04.738Z,100502.73
2022-11-03T13:34:32.326Z,100503.56
2022-11-03T13:37:00.409Z,100499.44
2022-11-03T13:39:28.226Z,100501.59
2022-11-03T13:41:55.795Z,100500.61
2022-11-03T13:44:23.303Z,100500.99
2022-11-03T13:46:51.139Z,100500.58
2022-11-03T13:52:09.782Z,100496.77
2022-11-03T14:00:16.965Z,100487.55
2022-11-03T14:05:32.416Z,100480.48
2022-11-03T14:07:59.972Z,100473.16
2022-11-03T14:10:27.693Z,100468.45
2022-11-03T14:12:56.348Z,100465.73
2022-11-03T14:15:23.898Z,100459.18
2022-11-03T14:17:51.690Z,100459.60
2022-11-03T14:20:19.414Z,100462.64
2022-11-03T14:22:47.116Z,100460.21
2022-11-03T14:25:14.675Z,100458.20
2022-11-03T14:27:42.700Z,100453.39
2022-11-03T14:30:11.599Z,100446.80
2022-11-03T14:32:39.286Z,100442.94
2022-11-03T14:35:07.657Z,100436.77
2022-11-03T14:37:35.467Z,100424.34
2022-11-03T14:40:04.036Z,100421.77
2022-11-03T14:42:31.571Z,100428.22
2022-11-03T14:44:59.086Z,100427.61
2022-11-03T14:47:27.561Z,100427.77
2022-11-03T14:49:55.076Z,100424.45
2022-11-03T14:52:22.651Z,100424.38
2022-11-03T14:54:52.048Z,100415.48
2022-11-03T14:57:19.571Z,100407.36
2022-11-03T14:59:52.209Z,100406.75
2022-11-03T15:02:21.141Z,100401.58
2022-11-03T15:04:48.808Z,100400.75
2022-11-03T15:07:16.349Z,100400.27
2022-11-03T15:09:43.919Z,100398.73
2022-11-03T15:12:11.450Z,100393.48
2022-11-03T15:14:38.986Z,100387.00
2022-11-03T15:17:06.569Z,100383.84
2022-11-03T15:19:34.325Z,100384.69
2022-11-03T15:22:01.836Z,100386.42
2022-11-03T15:27:17.284Z,100388.27
2022-11-03T15:29:45.046Z,100386.61
2022-11-03T15:32:12.623Z,100373.84
2022-11-03T15:34:40.150Z,100372.41
2022-11-03T15:37:07.684Z,100368.09
2022-11-03T15:39:35.177Z,100368.48
2022-11-03T15:42:02.795Z,100370.17
2022-11-03T15:44:30.372Z,100368.98
2022-11-03T15:46:57.932Z,100365.14
2022-11-03T15:49:25.636Z,100363.02
2022-11-03T15:51:53.157Z,100354.52
2022-11-03T15:54:20.716Z,100355.09
2022-11-03T15:56:48.499Z,100349.52
2022-11-03T15:59:16.064Z,100345.07
2022-11-03T16:01:43.753Z,100341.52
2022-11-03T16:04:11.501Z,100336.71
2022-11-03T16:07:07.464Z,100335.28
2022-11-03T16:09:26.568Z,100332.81
2022-11-03T16:11:54.061Z,100328.13
2022-11-03T16:14:21.646Z,100325.23
2022-11-03T16:16:49.162Z,100324.58
2022-11-03T16:19:16.922Z,100325.70
2022-11-03T16:21:44.759Z,100324.40
2022-11-03T16:24:12.283Z,100324.90
2022-11-03T16:26:39.992Z,100323.36
2022-11-03T16:29:07.524Z,100323.64
2022-11-03T16:31:35.885Z,100323.16
2022-11-03T16:34:04.680Z,100319.59
2022-11-03T16:36:32.217Z,100319.83
2022-11-03T16:38:59.761Z,100320.37
2022-11-03T16:41:27.276Z,100317.73
2022-11-03T16:43:54.779Z,100316.17
2022-11-03T16:46:22.420Z,100318.69
2022-11-03T16:48:50.040Z,100316.59
2022-11-03T16:51:17.983Z,100320.33
2022-11-03T16:53:45.516Z,100316.87
2022-11-03T16:56:13.724Z,100318.27
2022-11-03T16:58:41.327Z,100321.20
2022-11-03T17:01:09.110Z,100317.75
2022-11-03T17:03:36.761Z,100313.69
2022-11-03T17:06:04.487Z,100312.52
2022-11-03T17:08:51.993Z,100307.39
2022-11-03T17:11:35.888Z,100308.44
2022-11-03T17:14:13.152Z,100307.61
2022-11-03T17:16:45.181Z,100305.89
2022-11-03T17:19:13.614Z,100303.92
2022-11-03T17:21:41.374Z,100300.77
2022-11-03T17:24:11.074Z,100298.43
2022-11-03T17:26:56.030Z,100294.08
2022-11-03T17:29:37.339Z,100291.34
2022-11-03T17:32:35.860Z,100290.86
2022-11-03T17:35:45.689Z,100289.95
2022-11-03T17:38:17.538Z,100289.19
2022-11-03T17:40:47.014Z,100282.30
2022-11-03T17:43:21.189Z,100281.60
2022-11-03T17:45:48.890Z,100280.45
2022-11-03T17:48:17.323Z,100282.41
2022-11-03T17:50:48.161Z,100275.73
2022-11-03T17:53:31.965Z,100270.33
2022-11-03T17:56:29.479Z,100259.63
2022-11-03T17:58:49.870Z,100261.22
2022-11-03T18:01:24.469Z,100251.34
2022-11-03T18:03:52.633Z,100244.56
2022-11-03T18:06:21.923Z,100239.92
2022-11-03T18:12:56.883Z,100223.54
2022-11-03T18:15:25.913Z,100223.20
2022-11-03T18:17:53.474Z,100224.77
2022-11-03T18:20:25.974Z,100223.45
2022-11-03T18:22:57.733Z,100222.90
2022-11-03T18:25:25.273Z,100217.55
2022-11-03T18:27:52.791Z,100215.43
2022-11-03T18:30:20.326Z,100217.41
2022-11-03T18:32:48.951Z,100217.40
2022-11-03T18:35:22.882Z,100218.16
2022-11-03T18:37:50.777Z,100215.72
2022-11-03T18:40:20.185Z,100210.50
2022-11-03T18:42:47.910Z,100205.77
2022-11-03T18:45:18.615Z,100197.16
2022-11-03T18:47:46.189Z,100193.95
2022-11-03T18:50:16.297Z,100193.69
2022-11-03T18:52:51.934Z,100194.73
2022-11-03T18:55:19.535Z,100193.85
2022-11-03T18:57:47.192Z,100190.57
2022-11-03T19:00:20.821Z,100185.79
2022-11-03T19:02:50.397Z,100183.23
2022-11-03T19:05:19.046Z,100179.30
2022-11-03T19:07:49.872Z,100178.04
2022-11-03T19:10:22.215Z,100174.90
2022-11-03T19:12:49.768Z,100169.30
2022-11-03T19:15:21.445Z,100167.43
2022-11-03T19:17:52.544Z,100161.34
2022-11-03T19:20:20.447Z,100152.16
2022-11-03T19:22:48.006Z,100149.35
2022-11-03T19:25:15.896Z,100145.58
2022-11-03T19:27:46.330Z,100153.90
2022-11-03T19:30:18.025Z,100150.23
2022-11-03T19:32:48.628Z,100153.73
2022-11-03T19:35:35.332Z,100153.00
2022-11-03T19:38:12.263Z,100148.88
2022-11-03T19:41:03.809Z,100146.80
2022-11-03T19:43:34.777Z,100149.93
2022-11-03T19:46:04.686Z,100145.04
2022-11-03T19:48:34.148Z,100141.48
2022-11-03T19:51:04.110Z,100139.55
2022-11-03T19:53:33.146Z,100139.15
2022-11-03T19:56:01.419Z,100135.94
2022-11-03T19:58:29.505Z,100135.52
2022-11-03T20:00:57.147Z,100136.60
2022-11-03T20:03:25.166Z,100132.09
2022-11-03T20:05:56.477Z,100125.64
2022-11-03T20:08:27.579Z,100120.70
2022-11-03T20:10:55.905Z,100118.18
2022-11-03T20:13:26.238Z,100113.54
2022-11-03T20:16:00.766Z,100109.33
2022-11-03T20:18:29.269Z,100103.77
2022-11-03T20:20:58.222Z,100099.85
2022-11-03T20:23:30.262Z,100093.42
2022-11-03T20:25:58.537Z,100094.57
2022-11-03T20:28:28.871Z,100090.05
2022-11-03T20:30:57.203Z,100090.83
2022-11-03T20:33:25.516Z,100090.04
2022-11-03T20:35:54.575Z,100085.66
2022-11-03T20:38:24.878Z,100076.29
2022-11-03T20:40:58.829Z,100072.50
2022-11-03T20:43:45.800Z,100070.88
2022-11-03T20:46:36.556Z,100062.08
2022-11-03T20:49:04.350Z,100063.27
2022-11-03T20:51:35.066Z,100056.56
2022-11-03T20:54:11.245Z,100051.65
2022-11-03T20:56:38.828Z,100044.73
2022-11-03T20:59:06.360Z,100041.06
2022-11-03T21:01:34.257Z,100032.58
2022-11-03T21:04:03.111Z,100028.18
2022-11-03T21:06:32.319Z,100023.83
2022-11-03T21:08:59.956Z,100020.98
2022-11-03T21:11:33.818Z,100020.26
2022-11-03T21:14:07.787Z,100016.00
2022-11-03T21:16:51.382Z,100009.30
2022-11-03T21:19:37.656Z,100007.58
2022-11-03T21:22:45.851Z,100003.30
2022-11-03T21:25:17.228Z,100000.39
2022-11-03T21:27:45.612Z,99998.13
2022-11-03T21:30:15.486Z,99997.77
2022-11-03T21:32:43.484Z,99996.55
2022-11-03T21:35:14.884Z,99994.87
2022-11-03T21:37:42.450Z,99998.72
2022-11-03T21:40:10.983Z,99994.58
2022-11-03T21:42:54.546Z,99991.96
2022-11-03T21:45:22.093Z,99989.02
2022-11-03T21:48:11.817Z,99985.46
2022-11-03T21:50:41.134Z,99983.53
2022-11-03T21:53:09.414Z,99982.86
2022-11-03T21:55:37.381Z,99977.70
2022-11-03T21:58:05.311Z,99973.06
2022-11-03T22:00:33.766Z,99969.41
2022-11-03T22:03:01.628Z,99967.20
2022-11-03T22:05:29.424Z,99962.27
2022-11-03T22:07:56.993Z,99951.37
2022-11-03T22:10:24.728Z,99949.08
2022-11-03T22:12:52.385Z,99943.21
2022-11-03T22:15:35.917Z,99938.17
2022-11-03T22:18:06.061Z,99936.55
2022-11-03T22:20:52.246Z,99935.61
2022-11-03T22:23:35.805Z,99932.49
2022-11-03T22:26:20.300Z,99924.14
2022-11-03T22:29:07.825Z,99922.63
2022-11-03T22:31:41.303Z,99914.64
2022-11-03T22:34:26.233Z,99912.75
2022-11-03T22:36:54.066Z,99911.79
2022-11-03T22:39:37.838Z,99907.45
2022-11-03T22:42:20.449Z,99909.52
2022-11-03T22:45:03.991Z,99903.80
2022-11-03T22:47:31.606Z,99904.04
2022-11-03T22:49:59.127Z,99894.13
2022-11-03T22:52:26.622Z,99891.52
2022-11-03T22:54:54.126Z,99887.75
2022-11-03T22:57:21.640Z,99876.23
2022-11-03T22:59:49.271Z,99872.02
2022-11-03T23:02:16.910Z,99872.55
2022-11-03T23:04:46.300Z,99870.85
2022-11-03T23:07:13.846Z,99861.79
2022-11-03T23:09:41.439Z,99860.64
2022-11-03T23:12:08.986Z,99853.52
2022-11-03T23:14:52.541Z,99855.41
2022-11-03T23:17:40.616Z,99851.61
2022-11-03T23:20:29.196Z,99844.94
2022-11-03T23:22:57.830Z,99839.55
2022-11-03T23:25:25.355Z,99837.40
2022-11-03T23:27:52.957Z,99833.23
2022-11-03T23:30:20.573Z,99835.83
2022-11-03T23:32:48.115Z,99832.11
2022-11-03T23:35:16.851Z,99830.08
2022-11-03T23:37:44.386Z,99832.98
2022-11-03T23:40:15.923Z,99831.52
2022-11-03T23:42:46.459Z,99831.15
2022-11-03T23:45:40.440Z,99821.46
2022-11-03T23:48:34.237Z,99813.93
2022-11-03T23:51:01.740Z,99807.33
2022-11-03T23:53:29.506Z,99803.73
2022-11-03T23:56:16.050Z,99799.65
2022-11-03T23:58:43.868Z,99796.87
